Time;durP1;ratioP1;P1;durP2;ratioP2;P2;SDS_P1;SDS_P2;PMS_P1;PMS_P2;Temp;Humidity;BMP_temperature;BMP_pressure;BME280_temperature;BME280_humidity;BME280_pressure;Samples;Min_cycle;Max_cycle;Signal;HPM_P1;HPM_P2
2023/04/24 00:00:32;;;;;;;2.08;0.80;;;20.20;59.80;;;;;;5093859;28;20043;-72
2023/04/24 00:02:57;;;;;;;1.95;0.70;;;20.20;59.70;;;;;;5094435;28;20545;-73
2023/04/24 00:05:23;;;;;;;1.42;0.60;;;20.20;59.70;;;;;;5093688;28;20513;-72
2023/04/24 00:07:48;;;;;;;2.15;0.85;;;20.20;59.80;;;;;;5093863;28;20119;-72
2023/04/24 00:10:14;;;;;;;1.45;0.50;;;20.20;59.70;;;;;;5093161;28;20075;-73
2023/04/24 00:12:40;;;;;;;1.55;0.70;;;20.10;59.60;;;;;;5094154;28;20139;-72
2023/04/24 00:15:06;;;;;;;1.50;0.63;;;20.10;59.60;;;;;;5094355;28;20040;-72
2023/04/24 00:17:31;;;;;;;3.00;0.68;;;20.10;59.60;;;;;;5093232;28;20048;-73
2023/04/24 00:20:00;;;;;;;1.55;0.60;;;20.10;59.60;;;;;;5093229;28;20047;-73
2023/04/24 00:22:26;;;;;;;2.50;0.70;;;20.10;59.60;;;;;;5094663;28;20040;-73
2023/04/24 00:24:52;;;;;;;1.60;0.63;;;20.10;59.60;;;;;;5093535;28;20104;-73
2023/04/24 00:27:17;;;;;;;2.25;0.77;;;20.10;59.60;;;;;;5094357;28;20048;-73
2023/04/24 00:29:43;;;;;;;1.80;0.63;;;20.10;59.50;;;;;;5094077;28;20056;-73
2023/04/24 00:32:08;;;;;;;1.35;0.60;;;20.10;59.50;;;;;;5093217;28;20077;-72
2023/04/24 00:34:34;;;;;;;2.90;0.80;;;20.10;59.50;;;;;;5094116;28;20048;-72
2023/04/24 00:37:00;;;;;;;0.90;0.50;;;20.10;59.50;;;;;;5092775;28;20043;-73
2023/04/24 00:39:26;;;;;;;1.90;0.70;;;20.10;59.50;;;;;;5109113;28;20040;-73
2023/04/24 00:41:52;;;;;;;1.08;0.43;;;20.10;59.50;;;;;;5094004;28;20036;-73
2023/04/24 00:44:17;;;;;;;1.23;0.52;;;20.10;59.50;;;;;;5093593;28;20549;-73
2023/04/24 00:46:43;;;;;;;1.65;0.60;;;20.10;59.40;;;;;;5092396;28;20044;-72
2023/04/24 00:49:09;;;;;;;1.83;0.60;;;20.00;59.40;;;;;;5093564;28;20086;-72
2023/04/24 00:51:34;;;;;;;1.27;0.50;;;20.10;59.40;;;;;;5094187;28;20119;-73
2023/04/24 00:54:00;;;;;;;1.73;0.70;;;20.10;59.40;;;;;;5091586;28;20067;-72
2023/04/24 00:56:26;;;;;;;1.45;0.57;;;20.10;59.40;;;;;;5093820;28;20567;-72
2023/04/24 00:58:52;;;;;;;2.42;0.80;;;20.00;59.30;;;;;;5093777;28;20059;-72
2023/04/24 01:01:21;;;;;;;1.50;0.60;;;20.00;59.30;;;;;;5092349;28;20480;-73
2023/04/24 01:03:46;;;;;;;1.58;0.40;;;20.00;59.30;;;;;;5092448;28;20082;-73
2023/04/24 01:06:12;;;;;;;0.95;0.80;;;20.00;59.30;;;;;;5093493;28;20406;-72
2023/04/24 01:08:38;;;;;;;1.75;0.40;;;20.00;59.30;;;;;;5093178;28;20479;-73
2023/04/24 01:11:04;;;;;;;1.52;0.40;;;20.00;59.30;;;;;;5093389;28;20115;-73
2023/04/24 01:13:30;;;;;;;1.10;0.40;;;20.00;59.30;;;;;;5093273;28;20044;-72
2023/04/24 01:15:56;;;;;;;2.13;0.70;;;20.00;59.30;;;;;;5092626;28;20048;-72
2023/04/24 01:18:21;;;;;;;0.63;0.40;;;20.00;59.30;;;;;;5092448;28;20048;-72
2023/04/24 01:20:47;;;;;;;1.25;0.50;;;20.00;59.20;;;;;;5093442;28;20044;-71
2023/04/24 01:23:13;;;;;;;1.00;0.60;;;20.00;59.20;;;;;;5091280;28;20046;-70
2023/04/24 01:25:39;;;;;;;1.33;0.50;;;20.00;59.20;;;;;;5092042;28;20059;-72
2023/04/24 01:28:04;;;;;;;0.68;0.63;;;20.00;59.20;;;;;;5091632;28;20035;-73
2023/04/24 01:30:31;;;;;;;1.25;0.50;;;19.90;59.20;;;;;;5092937;28;20509;-71
2023/04/24 01:32:57;;;;;;;0.50;0.40;;;20.00;59.90;;;;;;5092682;28;20037;-72
2023/04/24 01:35:22;;;;;;;0.32;0.30;;;19.90;59.10;;;;;;5091068;28;20071;-72
2023/04/24 01:37:48;;;;;;;1.73;0.60;;;19.90;59.10;;;;;;5093022;28;20180;-72
2023/04/24 01:40:13;;;;;;;1.08;0.40;;;19.90;59.10;;;;;;5092853;28;20044;-71
2023/04/24 01:42:40;;;;;;;0.82;0.40;;;19.90;59.10;;;;;;5074491;28;20127;-71
2023/04/24 01:45:06;;;;;;;0.50;0.40;;;19.90;59.10;;;;;;5074884;28;20036;-72
2023/04/24 01:47:32;;;;;;;0.55;0.38;;;19.90;59.00;;;;;;5074870;28;20059;-72
2023/04/24 01:49:58;;;;;;;0.63;0.30;;;19.90;59.00;;;;;;5092031;28;20040;-71
2023/04/24 01:52:23;;;;;;;1.08;0.50;;;19.90;59.10;;;;;;5092899;28;20044;-72
2023/04/24 01:54:49;;;;;;;1.67;0.50;;;19.90;59.00;;;;;;5093202;28;20036;-72
2023/04/24 01:57:14;;;;;;;1.67;0.40;;;19.90;59.00;;;;;;5092049;28;20079;-72
2023/04/24 01:59:40;;;;;;;0.90;0.40;;;19.90;59.00;;;;;;5092689;28;20040;-72
2023/04/24 02:02:05;;;;;;;0.70;0.43;;;19.90;59.00;;;;;;5091043;28;20051;-73
2023/04/24 02:04:31;;;;;;;1.27;0.40;;;19.90;59.00;;;;;;5091989;28;20168;-72
2023/04/24 02:06:56;;;;;;;0.90;0.30;;;19.80;59.00;;;;;;5092217;28;20123;-72
2023/04/24 02:09:22;;;;;;;0.90;0.30;;;19.90;59.00;;;;;;5092630;28;20044;-72
2023/04/24 02:11:47;;;;;;;1.42;0.45;;;19.90;59.00;;;;;;5090738;28;20048;-72
2023/04/24 02:14:13;;;;;;;0.40;0.30;;;19.80;59.00;;;;;;5092193;28;20044;-71
2023/04/24 02:16:39;;;;;;;0.80;0.38;;;19.80;58.90;;;;;;5092568;28;20076;-72
2023/04/24 02:19:04;;;;;;;0.63;0.32;;;19.80;58.90;;;;;;5091806;28;20395;-72
2023/04/24 02:21:30;;;;;;;0.47;0.30;;;19.80;58.90;;;;;;5092670;28;20461;-72
2023/04/24 02:23:56;;;;;;;1.20;0.40;;;19.80;58.90;;;;;;5091506;28;20499;-71
2023/04/24 02:26:22;;;;;;;0.57;0.43;;;19.80;58.90;;;;;;5096307;28;20177;-73
2023/04/24 02:28:47;;;;;;;0.52;0.40;;;19.80;58.90;;;;;;5096968;28;20036;-72
2023/04/24 02:31:13;;;;;;;0.80;0.40;;;19.80;58.90;;;;;;5095541;28;20048;-72
2023/04/24 02:33:38;;;;;;;0.80;0.40;;;19.80;59.60;;;;;;5096123;28;20125;-72
2023/04/24 02:36:04;;;;;;;1.05;0.40;;;19.80;58.90;;;;;;5096318;28;20044;-72
2023/04/24 02:38:29;;;;;;;0.57;0.30;;;19.80;58.90;;;;;;5095016;28;20394;-72
2023/04/24 02:40:55;;;;;;;0.50;0.30;;;19.80;58.80;;;;;;5096434;28;20130;-72
2023/04/24 02:43:21;;;;;;;0.47;0.30;;;19.70;58.80;;;;;;5096332;28;20047;-72
2023/04/24 02:45:46;;;;;;;0.73;0.35;;;19.80;58.90;;;;;;5095476;28;20040;-72
2023/04/24 02:48:12;;;;;;;0.50;0.30;;;19.70;58.70;;;;;;5096222;28;20050;-72
2023/04/24 02:50:37;;;;;;;0.30;0.30;;;19.70;58.70;;;;;;5096113;28;20044;-72
2023/04/24 02:53:03;;;;;;;0.45;0.30;;;19.70;58.70;;;;;;5095073;28;20048;-72
2023/04/24 02:55:29;;;;;;;0.75;0.40;;;19.70;58.70;;;;;;5094772;28;20463;-72
2023/04/24 02:57:54;;;;;;;0.75;0.30;;;19.70;58.70;;;;;;5096030;28;20081;-72
2023/04/24 03:00:20;;;;;;;0.50;0.30;;;19.70;58.70;;;;;;5094003;28;20068;-72
2023/04/24 03:02:45;;;;;;;0.57;0.30;;;19.70;58.70;;;;;;5094746;28;20044;-72
2023/04/24 03:05:12;;;;;;;0.82;0.30;;;19.70;58.70;;;;;;5095774;28;20067;-72
2023/04/24 03:07:37;;;;;;;0.82;0.28;;;19.70;58.60;;;;;;5095277;28;20062;-71
2023/04/24 03:10:05;;;;;;;0.50;0.20;;;19.70;58.60;;;;;;5095414;28;20048;-72
2023/04/24 03:12:31;;;;;;;1.05;0.30;;;19.70;58.60;;;;;;5095164;28;20044;-72
2023/04/24 03:14:56;;;;;;;0.50;0.28;;;19.70;58.70;;;;;;5094264;28;20051;-73
2023/04/24 03:17:22;;;;;;;0.70;0.30;;;19.70;58.70;;;;;;5095548;28;20040;-72
2023/04/24 03:19:47;;;;;;;0.45;0.28;;;19.70;58.60;;;;;;5096071;28;20120;-72
2023/04/24 03:22:13;;;;;;;1.05;0.40;;;19.70;58.50;;;;;;5094689;28;20430;-71
2023/04/24 03:24:39;;;;;;;0.50;0.30;;;19.70;58.60;;;;;;5085993;28;20052;-72
2023/04/24 03:27:04;;;;;;;1.02;0.30;;;19.70;58.50;;;;;;5075307;28;20479;-72
2023/04/24 03:29:30;;;;;;;0.28;0.20;;;19.80;58.50;;;;;;5074211;28;20036;-72
2023/04/24 03:31:55;;;;;;;0.47;0.22;;;19.80;58.50;;;;;;5075280;28;20404;-72
2023/04/24 03:34:21;;;;;;;0.28;0.28;;;19.80;58.50;;;;;;5075390;28;20068;-72
2023/04/24 03:36:50;;;;;;;2.08;0.30;;;19.80;58.50;;;;;;5082859;28;20036;-72
2023/04/24 03:39:15;;;;;;;0.40;0.22;;;19.80;58.50;;;;;;5095200;28;20127;-72
2023/04/24 03:41:41;;;;;;;0.20;0.20;;;19.80;58.50;;;;;;5095336;28;20127;-72
2023/04/24 03:44:06;;;;;;;0.90;0.30;;;19.80;58.50;;;;;;5094390;28;20040;-72
2023/04/24 03:46:32;;;;;;;1.08;0.20;;;19.80;58.50;;;;;;5094938;28;20101;-72
2023/04/24 03:48:57;;;;;;;0.65;0.17;;;19.80;58.40;;;;;;5093158;28;20048;-73
2023/04/24 03:51:23;;;;;;;0.55;0.30;;;19.80;58.50;;;;;;5095227;28;20047;-72
2023/04/24 03:53:49;;;;;;;0.75;0.32;;;19.80;58.40;;;;;;5095114;28;20044;-73
2023/04/24 03:56:14;;;;;;;0.55;0.30;;;19.80;58.50;;;;;;5093900;28;20052;-72
2023/04/24 03:58:40;;;;;;;0.25;0.20;;;19.80;58.40;;;;;;5095104;28;20033;-73
2023/04/24 04:01:06;;;;;;;0.30;0.20;;;19.90;58.50;;;;;;5094318;28;20377;-72
2023/04/24 04:03:31;;;;;;;1.48;0.30;;;19.90;58.50;;;;;;5094331;28;20028;-73
2023/04/24 04:05:57;;;;;;;1.25;0.20;;;19.90;58.50;;;;;;5094189;28;20445;-73
2023/04/24 04:08:22;;;;;;;0.60;0.30;;;19.90;58.50;;;;;;5093516;28;20048;-72
2023/04/24 04:10:48;;;;;;;0.57;0.30;;;19.90;58.50;;;;;;5093805;28;20032;-72
2023/04/24 04:13:14;;;;;;;0.65;0.20;;;19.90;58.40;;;;;;5094268;28;20085;-73
2023/04/24 04:15:39;;;;;;;0.47;0.20;;;19.90;58.40;;;;;;5093077;28;20040;-73
2023/04/24 04:18:05;;;;;;;0.68;0.30;;;19.90;58.40;;;;;;5093719;28;20040;-73
2023/04/24 04:20:30;;;;;;;0.43;0.20;;;19.90;58.40;;;;;;5094733;28;20237;-73
2023/04/24 04:22:56;;;;;;;1.33;0.20;;;19.90;58.40;;;;;;5094337;28;20063;-72
2023/04/24 04:25:22;;;;;;;0.30;0.20;;;19.90;58.40;;;;;;5093574;28;20131;-72
2023/04/24 04:27:48;;;;;;;0.20;0.20;;;20.00;58.40;;;;;;5094359;28;20111;-73
2023/04/24 04:30:14;;;;;;;0.45;0.20;;;20.00;58.40;;;;;;5092736;28;21133;-73
2023/04/24 04:32:40;;;;;;;0.20;0.20;;;20.00;58.40;;;;;;5093540;28;20040;-72
2023/04/24 04:35:05;;;;;;;0.55;0.20;;;20.00;58.40;;;;;;5094014;28;20048;-72
2023/04/24 04:37:34;;;;;;;0.20;0.20;;;20.00;58.40;;;;;;5094370;28;20071;-72
2023/04/24 04:39:59;;;;;;;;;;;20.00;58.40;;;;;;5093745;28;20047;-72
2023/04/24 04:42:26;;;;;;;0.88;0.20;;;20.00;59.10;;;;;;5094030;28;19920;-73
2023/04/24 04:44:52;;;;;;;0.45;0.22;;;20.00;58.40;;;;;;5094197;28;20055;-73
2023/04/24 04:47:18;;;;;;;0.30;0.20;;;20.00;58.30;;;;;;5092458;28;20487;-72
2023/04/24 04:49:43;;;;;;;0.28;0.20;;;20.00;58.40;;;;;;5094101;28;20043;-72
2023/04/24 04:52:09;;;;;;;1.25;0.30;;;20.00;58.40;;;;;;5093012;28;20044;-73
2023/04/24 04:54:35;;;;;;;0.73;0.20;;;20.00;58.30;;;;;;5094155;28;20042;-73
2023/04/24 04:57:01;;;;;;;0.38;0.20;;;20.00;58.30;;;;;;5092076;28;20450;-72
2023/04/24 04:59:27;;;;;;;0.10;0.10;;;20.00;58.30;;;;;;5093238;28;20048;-72
2023/04/24 05:01:52;;;;;;;0.98;0.20;;;20.00;58.30;;;;;;5093899;28;20391;-73
2023/04/24 05:04:18;;;;;;;0.73;0.20;;;20.00;58.30;;;;;;5093418;28;20396;-73
2023/04/24 05:06:43;;;;;;;0.10;0.10;;;20.00;58.30;;;;;;5092961;28;20511;-73
2023/04/24 05:09:09;;;;;;;0.17;0.10;;;20.00;58.30;;;;;;5093286;28;20054;-73
2023/04/24 05:11:35;;;;;;;0.40;0.10;;;20.00;58.30;;;;;;5093439;28;20538;-73
2023/04/24 05:14:00;;;;;;;0.40;0.20;;;20.00;58.30;;;;;;5092731;28;20075;-73
2023/04/24 05:16:26;;;;;;;0.15;0.15;;;20.00;58.30;;;;;;5093150;28;20044;-73
2023/04/24 05:18:52;;;;;;;0.47;0.20;;;20.00;58.30;;;;;;5093480;28;20040;-73
2023/04/24 05:21:17;;;;;;;0.47;0.10;;;20.00;58.30;;;;;;5092614;28;20039;-73
2023/04/24 05:23:43;;;;;;;1.05;0.20;;;20.00;58.30;;;;;;5092952;28;20055;-73
2023/04/24 05:26:09;;;;;;;0.30;0.20;;;20.00;58.30;;;;;;5093138;28;20050;-73
2023/04/24 05:28:36;;;;;;;0.38;0.17;;;20.00;58.30;;;;;;5092057;28;20040;-73
2023/04/24 05:31:02;;;;;;;1.52;0.20;;;20.00;58.30;;;;;;5092824;28;20411;-73
2023/04/24 05:33:27;;;;;;;0.73;0.20;;;20.00;58.30;;;;;;5092841;28;20479;-73
2023/04/24 05:35:53;;;;;;;0.28;0.20;;;20.00;58.30;;;;;;5092206;28;20156;-73
2023/04/24 05:38:19;;;;;;;0.25;0.20;;;20.00;58.30;;;;;;5093201;28;20043;-73
2023/04/24 05:40:45;;;;;;;0.77;0.20;;;20.00;58.40;;;;;;5093094;28;20043;-73
2023/04/24 05:43:12;;;;;;;0.13;0.10;;;19.90;58.30;;;;;;5091999;28;20127;-73
2023/04/24 05:45:38;;;;;;;0.20;0.10;;;19.90;58.30;;;;;;5093099;28;20115;-73
2023/04/24 05:48:03;;;;;;;1.45;0.20;;;19.90;58.30;;;;;;5092920;28;20407;-73
2023/04/24 05:50:29;;;;;;;1.00;0.20;;;20.00;58.30;;;;;;5092305;28;20538;-73
2023/04/24 05:52:56;;;;;;;0.30;0.20;;;19.90;58.30;;;;;;5092956;28;20518;-73
2023/04/24 05:55:21;;;;;;;0.17;0.13;;;19.90;58.40;;;;;;5090941;28;20040;-73
2023/04/24 05:57:47;;;;;;;0.10;0.10;;;20.00;58.40;;;;;;5093302;28;20047;-73
2023/04/24 06:00:13;;;;;;;0.68;0.20;;;19.90;58.50;;;;;;5092351;28;20044;-73
2023/04/24 06:02:39;;;;;;;0.20;0.10;;;19.90;58.50;;;;;;5092161;28;20043;-73
2023/04/24 06:05:04;;;;;;;0.20;0.10;;;19.90;58.50;;;;;;5092544;28;20072;-73
2023/04/24 06:07:31;;;;;;;0.22;0.10;;;19.90;58.40;;;;;;5092951;28;20058;-73
2023/04/24 06:09:56;;;;;;;0.30;0.20;;;20.00;58.50;;;;;;5090465;28;20487;-74
2023/04/24 06:12:22;;;;;;;0.10;0.10;;;19.90;58.50;;;;;;5091403;28;20047;-74
2023/04/24 06:14:48;;;;;;;0.15;0.10;;;20.00;58.50;;;;;;5092569;28;20043;-74
2023/04/24 06:17:14;;;;;;;0.20;0.20;;;20.00;58.50;;;;;;5091770;28;20151;-73
2023/04/24 06:19:40;;;;;;;0.25;0.20;;;19.90;58.50;;;;;;5092759;28;20054;-73
2023/04/24 06:22:05;;;;;;;1.08;0.17;;;20.00;58.60;;;;;;5091946;28;20480;-72
2023/04/24 06:24:31;;;;;;;0.10;0.10;;;20.00;58.60;;;;;;5091661;28;20153;-71
2023/04/24 06:26:58;;;;;;;0.30;0.20;;;20.00;58.60;;;;;;5092623;28;20048;-72
2023/04/24 06:29:24;;;;;;;1.92;0.20;;;20.00;58.50;;;;;;5092758;28;20419;-73
2023/04/24 06:31:49;;;;;;;1.27;0.20;;;20.00;58.50;;;;;;5091913;28;20047;-72
2023/04/24 06:34:15;;;;;;;4.13;0.30;;;20.00;58.50;;;;;;5091899;28;20118;-72
2023/04/24 06:36:41;;;;;;;2.38;0.43;;;20.00;58.80;;;;;;5092205;28;20469;-73
2023/04/24 06:39:06;;;;;;;1.95;0.20;;;20.00;59.00;;;;;;5090360;28;20063;-72
2023/04/24 06:41:32;;;;;;;1.35;0.20;;;20.10;59.10;;;;;;5091662;28;20051;-72
2023/04/24 06:43:57;;;;;;;1.05;0.20;;;20.10;59.10;;;;;;5092338;28;20047;-71
2023/04/24 06:46:25;;;;;;;3.35;0.20;;;20.10;59.00;;;;;;5091435;28;20040;-72
2023/04/24 06:48:57;;;;;;;2.67;0.40;;;20.10;59.00;;;;;;5090840;28;20040;-73
2023/04/24 06:51:23;;;;;;;3.47;0.30;;;20.10;59.10;;;;;;5089997;28;20028;-70
2023/04/24 06:53:49;;;;;;;2.67;0.20;;;20.10;59.20;;;;;;5091300;28;20089;-67
2023/04/24 06:56:15;;;;;;;0.77;0.28;;;20.10;59.30;;;;;;5091791;28;20106;-74
2023/04/24 06:58:41;;;;;;;2.28;0.20;;;20.10;59.30;;;;;;5090400;28;20450;-71
2023/04/24 07:01:07;;;;;;;2.88;0.22;;;20.10;59.40;;;;;;5092093;28;20556;-71
2023/04/24 07:03:32;;;;;;;3.45;0.40;;;20.10;59.50;;;;;;5091094;28;20046;-71
2023/04/24 07:05:58;;;;;;;3.58;0.30;;;20.20;59.60;;;;;;5091268;28;20047;-70
2023/04/24 07:08:23;;;;;;;3.67;0.47;;;20.20;59.60;;;;;;5092100;28;20044;-70
2023/04/24 07:10:50;;;;;;;4.30;0.40;;;20.20;59.70;;;;;;5092418;28;20040;-69
2023/04/24 07:13:16;;;;;;;2.40;0.35;;;20.20;59.70;;;;;;5094654;28;20075;-69
2023/04/24 07:15:42;;;;;;;2.88;0.20;;;20.20;59.70;;;;;;5095476;28;20031;-69
2023/04/24 07:18:08;;;;;;;3.88;0.35;;;20.20;59.80;;;;;;5095096;28;20439;-68
2023/04/24 07:20:34;;;;;;;2.60;0.30;;;20.20;59.70;;;;;;5095120;28;20043;-68
2023/04/24 07:22:59;;;;;;;3.05;0.35;;;20.30;59.80;;;;;;5095274;28;20552;-70
2023/04/24 07:25:25;;;;;;;1.70;0.30;;;20.30;59.80;;;;;;5095150;28;20070;-68
2023/04/24 07:27:52;;;;;;;1.00;0.20;;;20.30;59.80;;;;;;5094607;28;20568;-68
2023/04/24 07:30:18;;;;;;;4.45;0.35;;;20.30;59.90;;;;;;5095056;28;20109;-70
2023/04/24 07:32:44;;;;;;;2.45;0.38;;;20.30;59.90;;;;;;5093999;28;20475;-68
2023/04/24 07:35:09;;;;;;;1.77;0.20;;;20.30;59.90;;;;;;5093974;28;20063;-67
2023/04/24 07:37:36;;;;;;;1.33;0.30;;;20.30;59.90;;;;;;5095578;28;20071;-67
2023/04/24 07:40:01;;;;;;;2.65;0.40;;;20.30;59.90;;;;;;5094058;28;20043;-68
2023/04/24 07:42:27;;;;;;;1.52;0.20;;;20.30;60.00;;;;;;5094568;28;20044;-67
2023/04/24 07:44:53;;;;;;;1.50;0.30;;;20.30;60.00;;;;;;5095251;28;20086;-67
2023/04/24 07:47:19;;;;;;;2.95;0.38;;;20.30;60.00;;;;;;5094203;28;20047;-68
2023/04/24 07:49:44;;;;;;;2.63;0.30;;;20.40;60.10;;;;;;5084236;28;20449;-67
2023/04/24 07:52:10;;;;;;;2.78;0.40;;;20.40;60.80;;;;;;5094225;28;20040;-67
2023/04/24 07:54:37;;;;;;;3.45;0.60;;;20.40;60.10;;;;;;5091644;28;20035;-67
2023/04/24 07:57:02;;;;;;;4.35;0.32;;;20.40;60.10;;;;;;5090664;28;20056;-67
2023/04/24 07:59:28;;;;;;;1.10;0.30;;;20.40;60.20;;;;;;5088512;28;20077;-67
2023/04/24 08:01:54;;;;;;;0.88;0.30;;;20.40;60.30;;;;;;5094383;28;20048;-66
2023/04/24 08:04:20;;;;;;;0.60;0.20;;;20.40;60.30;;;;;;5091662;28;20115;-68
2023/04/24 08:06:47;;;;;;;3.28;0.43;;;20.40;60.30;;;;;;5093830;28;20048;-67
2023/04/24 08:09:12;;;;;;;4.13;0.30;;;20.40;60.20;;;;;;5093227;28;20067;-66
2023/04/24 08:11:38;;;;;;;0.90;0.40;;;20.40;60.20;;;;;;5094141;28;20476;-67
2023/04/24 08:14:03;;;;;;;3.03;0.40;;;20.40;60.20;;;;;;5091678;28;20403;-66
2023/04/24 08:16:29;;;;;;;2.90;0.60;;;20.40;60.20;;;;;;5092559;28;20046;-65
2023/04/24 08:18:55;;;;;;;2.45;0.32;;;20.40;60.90;;;;;;5093313;28;20166;-65
2023/04/24 08:21:21;;;;;;;1.17;0.40;;;20.40;60.30;;;;;;5091224;28;20122;-64
2023/04/24 08:23:46;;;;;;;2.35;0.30;;;20.40;60.30;;;;;;5092117;28;20048;-65
2023/04/24 08:26:12;;;;;;;3.13;0.47;;;20.40;60.30;;;;;;5092082;28;20062;-66
2023/04/24 08:28:38;;;;;;;1.55;0.40;;;20.40;60.30;;;;;;5093649;28;20039;-65
2023/04/24 08:31:04;;;;;;;1.63;0.22;;;20.30;60.30;;;;;;5093050;28;20055;-65
2023/04/24 08:33:34;;;;;;;1.10;0.35;;;20.40;60.30;;;;;;5093516;28;20028;-65
2023/04/24 08:36:03;;;;;;;2.85;0.40;;;20.30;60.30;;;;;;5093297;28;20461;-68
2023/04/24 08:38:29;;;;;;;1.73;0.30;;;20.30;60.50;;;;;;5094929;28;20040;-68
2023/04/24 08:40:54;;;;;;;2.47;0.30;;;20.30;60.50;;;;;;5114136;28;20105;-65
2023/04/24 08:43:21;;;;;;;1.30;0.45;;;20.30;60.40;;;;;;5113590;28;20040;-65
2023/04/24 08:45:47;;;;;;;0.77;0.20;;;20.30;60.40;;;;;;5102369;28;20055;-66
2023/04/24 08:48:13;;;;;;;3.05;0.47;;;20.30;60.30;;;;;;5091919;28;20451;-65
2023/04/24 08:50:41;;;;;;;1.27;0.30;;;20.30;60.30;;;;;;5092078;28;20109;-65
2023/04/24 08:53:06;;;;;;;2.75;0.30;;;20.30;60.90;;;;;;5058110;28;20089;-66
2023/04/24 08:55:32;;;;;;;3.65;0.40;;;20.30;60.40;;;;;;5075322;28;20040;-67
2023/04/24 08:57:57;;;;;;;2.22;0.40;;;20.30;60.40;;;;;;5074742;28;20043;-66
2023/04/24 09:00:23;;;;;;;0.50;0.20;;;20.30;60.40;;;;;;5092499;28;20095;-67
2023/04/24 09:02:49;;;;;;;1.63;0.20;;;20.30;60.30;;;;;;5093337;28;20503;-67
2023/04/24 09:05:16;;;;;;;1.75;0.40;;;20.30;60.30;;;;;;5092614;28;20110;-68
2023/04/24 09:07:42;;;;;;;2.45;0.40;;;20.30;60.40;;;;;;5091763;28;20418;-68
2023/04/24 09:10:08;;;;;;;2.85;0.63;;;20.30;60.50;;;;;;5092935;28;20042;-68
2023/04/24 09:12:34;;;;;;;1.70;0.40;;;20.30;60.50;;;;;;5091847;28;20047;-68
2023/04/24 09:15:00;;;;;;;2.35;0.60;;;20.30;60.50;;;;;;5088664;28;20047;-67
2023/04/24 09:17:26;;;;;;;1.52;0.40;;;20.30;60.50;;;;;;5108570;28;20054;-68
2023/04/24 09:19:52;;;;;;;1.52;0.63;;;20.20;60.50;;;;;;5098631;28;20048;-68
2023/04/24 09:22:18;;;;;;;1.35;0.35;;;20.20;60.50;;;;;;5092420;28;20036;-68
2023/04/24 09:24:44;;;;;;;1.17;0.30;;;20.20;60.50;;;;;;5092790;28;20420;-70
2023/04/24 09:27:11;;;;;;;1.13;0.32;;;20.20;60.60;;;;;;5056730;28;20047;-68
2023/04/24 09:29:36;;;;;;;2.05;0.40;;;20.20;60.70;;;;;;5101844;28;20043;-68
2023/04/24 09:32:18;;;;;;;2.05;0.32;;;20.20;60.70;;;;;;5092604;28;20082;-70
2023/04/24 09:34:43;;;;;;;1.85;0.40;;;20.20;60.70;;;;;;5092776;28;20036;-70
2023/04/24 09:37:09;;;;;;;1.55;0.40;;;20.20;60.60;;;;;;5073873;28;20526;-69
2023/04/24 09:39:35;;;;;;;1.27;0.30;;;20.20;60.60;;;;;;5091145;28;20051;-68
2023/04/24 09:42:01;;;;;;;1.63;0.30;;;20.20;60.60;;;;;;5089748;28;20036;-69
2023/04/24 09:44:27;;;;;;;1.50;0.50;;;20.20;60.70;;;;;;5091222;28;20118;-68
2023/04/24 09:46:57;;;;;;;1.20;0.40;;;20.20;60.70;;;;;;5092408;28;20364;-68
2023/04/24 09:49:29;;;;;;;2.00;0.50;;;20.20;60.80;;;;;;5090947;28;20067;-68
2023/04/24 09:52:09;;;;;;;2.10;0.50;;;20.20;60.90;;;;;;5088072;28;20487;-66
2023/04/24 09:54:36;;;;;;;1.73;0.55;;;20.20;61.00;;;;;;5090218;28;20056;-69
2023/04/24 09:57:02;;;;;;;1.53;0.37;;;20.20;60.90;;;;;;5091460;28;20391;-69
2023/04/24 09:59:27;;;;;;;3.38;0.88;;;20.20;60.80;;;;;;5092423;28;20586;-68
2023/04/24 10:01:53;;;;;;;3.20;0.50;;;20.10;60.70;;;;;;5091165;28;20121;-69
2023/04/24 10:04:23;;;;;;;2.08;0.43;;;20.20;60.80;;;;;;5091711;28;20040;-69
2023/04/24 10:06:49;;;;;;;2.92;0.63;;;20.20;60.80;;;;;;5091968;28;20086;-69
2023/04/24 10:09:18;;;;;;;4.45;1.02;;;20.10;60.70;;;;;;5090956;28;20143;-69
2023/04/24 10:11:48;;;;;;;1.73;0.70;;;20.10;60.90;;;;;;5090933;28;20067;-69
2023/04/24 10:14:15;;;;;;;2.95;0.80;;;20.10;61.00;;;;;;5092087;28;20058;-69
2023/04/24 10:16:42;;;;;;;3.03;0.80;;;20.10;61.00;;;;;;5091545;28;20090;-70
2023/04/24 10:19:08;;;;;;;2.28;0.70;;;20.10;61.00;;;;;;5091962;28;20051;-69
2023/04/24 10:21:34;;;;;;;2.63;0.60;;;20.10;60.90;;;;;;5090541;28;20141;-70
2023/04/24 10:24:03;;;;;;;2.78;0.63;;;20.10;60.90;;;;;;5090948;28;20134;-70
2023/04/24 10:26:28;;;;;;;3.90;0.70;;;20.10;60.90;;;;;;5090475;28;20553;-66
2023/04/24 10:28:54;;;;;;;4.28;0.98;;;20.10;60.90;;;;;;5089743;28;20040;-66
2023/04/24 10:31:20;;;;;;;2.42;0.68;;;20.10;61.00;;;;;;5071658;28;20126;-66
2023/04/24 10:33:45;;;;;;;2.33;0.80;;;20.10;61.00;;;;;;5091582;28;20036;-66
2023/04/24 10:36:11;;;;;;;5.38;0.90;;;20.10;61.10;;;;;;5093621;28;20105;-66
2023/04/24 10:38:37;;;;;;;1.55;0.63;;;20.10;61.00;;;;;;5089512;28;20039;-66
2023/04/24 10:41:13;;;;;;;3.50;0.80;;;20.10;61.10;;;;;;5056544;28;20086;-66
2023/04/24 10:43:40;;;;;;;1.98;0.70;;;20.10;61.10;;;;;;5089254;28;20119;-67
2023/04/24 10:46:06;;;;;;;5.43;0.82;;;20.10;61.10;;;;;;5092695;28;20495;-66
2023/04/24 10:48:32;;;;;;;4.45;1.00;;;20.10;61.10;;;;;;5095231;28;20341;-66
2023/04/24 10:50:57;;;;;;;3.85;1.10;;;20.10;61.20;;;;;;5094080;28;20043;-66
2023/04/24 10:53:26;;;;;;;2.28;1.00;;;20.10;61.20;;;;;;5095325;28;20036;-68
2023/04/24 10:56:09;;;;;;;4.40;1.13;;;20.10;61.30;;;;;;5094418;28;20484;-67
2023/04/24 10:58:49;;;;;;;4.72;1.35;;;20.10;61.40;;;;;;5095444;28;20440;-67
2023/04/24 11:01:24;;;;;;;3.38;0.90;;;20.10;61.20;;;;;;5095044;28;20150;-68
2023/04/24 11:03:50;;;;;;;2.28;1.00;;;20.10;61.30;;;;;;5094941;28;20036;-67
2023/04/24 11:06:16;;;;;;;3.67;1.05;;;20.00;61.30;;;;;;5093043;28;20071;-68
2023/04/24 11:08:45;;;;;;;4.05;1.00;;;20.00;61.30;;;;;;5093684;28;20083;-67
2023/04/24 11:11:11;;;;;;;2.13;1.10;;;20.10;61.40;;;;;;5094935;28;20268;-68
2023/04/24 11:13:55;;;;;;;2.72;1.15;;;20.00;61.40;;;;;;5093070;28;20048;-67
2023/04/24 11:16:30;;;;;;;5.60;1.02;;;20.00;61.30;;;;;;5092975;28;20126;-66
2023/04/24 11:19:08;;;;;;;3.88;1.20;;;20.10;61.40;;;;;;5093371;28;20447;-69
2023/04/24 11:21:45;;;;;;;3.30;1.05;;;20.00;61.40;;;;;;5092241;28;20094;-68
2023/04/24 11:24:30;;;;;;;3.92;1.10;;;20.00;61.30;;;;;;5091505;28;20068;-67
2023/04/24 11:27:19;;;;;;;4.38;1.23;;;20.10;61.40;;;;;;5099173;28;20040;-67
2023/04/24 11:29:51;;;;;;;3.53;1.27;;;20.10;61.40;;;;;;5091816;28;20052;-68
2023/04/24 11:32:32;;;;;;;2.35;1.00;;;20.10;61.40;;;;;;5075861;28;20047;-68
2023/04/24 11:35:01;;;;;;;3.22;1.33;;;20.10;61.30;;;;;;5092953;28;20070;-67
2023/04/24 11:37:29;;;;;;;2.17;1.00;;;20.10;61.30;;;;;;5093356;28;20472;-68
2023/04/24 11:39:56;;;;;;;2.33;1.15;;;20.10;61.30;;;;;;5094773;28;20050;-67
2023/04/24 11:42:22;;;;;;;2.67;1.27;;;20.10;61.20;;;;;;5093970;28;20047;-68
2023/04/24 11:44:49;;;;;;;3.35;1.13;;;20.20;61.30;;;;;;5093665;28;20059;-68
2023/04/24 11:47:15;;;;;;;4.20;1.20;;;20.20;61.20;;;;;;5075209;28;20062;-68
2023/04/24 11:49:40;;;;;;;2.17;0.90;;;20.20;61.40;;;;;;5094942;28;20032;-67
2023/04/24 11:52:06;;;;;;;3.92;1.20;;;20.20;61.30;;;;;;5093484;28;20058;-68
2023/04/24 11:54:32;;;;;;;4.70;1.15;;;20.20;61.20;;;;;;5093474;28;20024;-68
2023/04/24 11:56:57;;;;;;;3.90;1.05;;;20.20;61.10;;;;;;5092864;28;20039;-67
2023/04/24 11:59:23;;;;;;;4.95;1.30;;;20.20;61.10;;;;;;5093324;28;20047;-67
2023/04/24 12:01:49;;;;;;;2.30;1.00;;;20.20;61.00;;;;;;5093690;28;20082;-68
2023/04/24 12:04:15;;;;;;;3.70;1.20;;;20.20;60.90;;;;;;5090965;28;20555;-71
2023/04/24 12:06:59;;;;;;;2.70;1.15;;;20.20;60.90;;;;;;5094887;28;20113;-67
2023/04/24 12:09:25;;;;;;;3.67;1.10;;;20.30;60.90;;;;;;5094209;28;20122;-68
2023/04/24 12:11:56;;;;;;;3.05;1.10;;;20.30;60.80;;;;;;5094999;28;20115;-68
2023/04/24 12:14:22;;;;;;;4.35;1.17;;;20.30;60.80;;;;;;5094942;28;20040;-68
2023/04/24 12:16:48;;;;;;;3.83;1.20;;;20.30;60.70;;;;;;5093902;28;20058;-68
2023/04/24 12:19:23;;;;;;;3.58;1.50;;;20.30;60.60;;;;;;5094592;28;20770;-68
2023/04/24 12:22:05;;;;;;;2.63;1.08;;;20.30;60.60;;;;;;5094450;28;20051;-68
2023/04/24 12:24:30;;;;;;;2.15;1.10;;;20.30;60.50;;;;;;5093921;28;20084;-68
2023/04/24 12:26:57;;;;;;;4.63;1.17;;;20.40;60.50;;;;;;5092958;28;20084;-69
2023/04/24 12:29:23;;;;;;;2.25;1.00;;;20.40;60.50;;;;;;5093881;28;20039;-69
2023/04/24 12:31:50;;;;;;;4.32;1.45;;;20.40;60.40;;;;;;5094301;28;20042;-68
2023/04/24 12:34:23;;;;;;;3.50;1.15;;;20.40;60.40;;;;;;5092947;28;20036;-68
2023/04/24 12:36:48;;;;;;;2.17;1.05;;;20.40;60.30;;;;;;5093759;28;20089;-69
2023/04/24 12:39:26;;;;;;;4.20;1.10;;;20.40;60.40;;;;;;5093956;28;20048;-68
2023/04/24 12:41:59;;;;;;;3.00;1.40;;;20.40;60.30;;;;;;5094505;28;20040;-68
2023/04/24 12:44:34;;;;;;;4.15;1.30;;;20.40;60.30;;;;;;5093441;28;20530;-68